sensor_id;sensor_type;location;lat;lon;timestamp;P1;durP1;ratioP1;P2;durP2;ratioP2
54853;SDS011;40747;49.480;8.658;2024-02-15T00:01:54;2.47;;;1.63;;
54853;SDS011;40747;49.480;8.658;2024-02-15T00:04:20;1.58;;;1.27;;
54853;SDS011;40747;49.480;8.658;2024-02-15T00:06:45;2.30;;;1.42;;
54853;SDS011;40747;49.480;8.658;2024-02-15T00:09:10;2.30;;;1.48;;
54853;SDS011;40747;49.480;8.658;2024-02-15T00:11:36;1.25;;;1.15;;
54853;SDS011;40747;49.480;8.658;2024-02-15T00:14:01;2.15;;;1.65;;
54853;SDS011;40747;49.480;8.658;2024-02-15T00:16:26;1.83;;;1.15;;
54853;SDS011;40747;49.480;8.658;2024-02-15T00:18:52;2.53;;;1.52;;
54853;SDS011;40747;49.480;8.658;2024-02-15T00:21:20;1.00;;;0.90;;
54853;SDS011;40747;49.480;8.658;2024-02-15T00:23:45;1.80;;;1.63;;
54853;SDS011;40747;49.480;8.658;2024-02-15T00:26:11;3.83;;;1.85;;
54853;SDS011;40747;49.480;8.658;2024-02-15T00:28:37;4.10;;;1.70;;
54853;SDS011;40747;49.480;8.658;2024-02-15T00:31:02;2.25;;;1.58;;
54853;SDS011;40747;49.480;8.658;2024-02-15T00:33:27;3.65;;;1.40;;
54853;SDS011;40747;49.480;8.658;2024-02-15T00:35:54;3.60;;;1.80;;
54853;SDS011;40747;49.480;8.658;2024-02-15T00:38:19;1.50;;;1.17;;
54853;SDS011;40747;49.480;8.658;2024-02-15T00:40:44;3.13;;;1.45;;
54853;SDS011;40747;49.480;8.658;2024-02-15T00:43:10;2.83;;;1.38;;
54853;SDS011;40747;49.480;8.658;2024-02-15T00:45:35;6.47;;;1.70;;
54853;SDS011;40747;49.480;8.658;2024-02-15T00:48:01;2.38;;;1.33;;
54853;SDS011;40747;49.480;8.658;2024-02-15T00:50:26;2.53;;;1.48;;
54853;SDS011;40747;49.480;8.658;2024-02-15T00:52:51;1.45;;;1.17;;
54853;SDS011;40747;49.480;8.658;2024-02-15T00:55:17;2.83;;;1.65;;
54853;SDS011;40747;49.480;8.658;2024-02-15T00:57:42;1.30;;;1.20;;
54853;SDS011;40747;49.480;8.658;2024-02-15T01:00:07;2.47;;;1.27;;
54853;SDS011;40747;49.480;8.658;2024-02-15T01:02:34;3.75;;;1.63;;
54853;SDS011;40747;49.480;8.658;2024-02-15T01:05:00;1.95;;;1.13;;
54853;SDS011;40747;49.480;8.658;2024-02-15T01:07:26;3.70;;;1.83;;
54853;SDS011;40747;49.480;8.658;2024-02-15T01:09:52;2.33;;;1.38;;
54853;SDS011;40747;49.480;8.658;2024-02-15T01:12:18;1.55;;;1.40;;
54853;SDS011;40747;49.480;8.658;2024-02-15T01:14:43;2.25;;;1.55;;
54853;SDS011;40747;49.480;8.658;2024-02-15T01:17:09;2.03;;;1.33;;
54853;SDS011;40747;49.480;8.658;2024-02-15T01:19:34;3.97;;;1.63;;
54853;SDS011;40747;49.480;8.658;2024-02-15T01:22:00;7.93;;;1.27;;
54853;SDS011;40747;49.480;8.658;2024-02-15T01:24:25;2.03;;;1.50;;
54853;SDS011;40747;49.480;8.658;2024-02-15T01:26:50;2.03;;;1.33;;
54853;SDS011;40747;49.480;8.658;2024-02-15T01:29:15;3.17;;;1.88;;
54853;SDS011;40747;49.480;8.658;2024-02-15T01:31:42;1.70;;;1.60;;
54853;SDS011;40747;49.480;8.658;2024-02-15T01:34:07;4.22;;;1.73;;
54853;SDS011;40747;49.480;8.658;2024-02-15T01:36:32;2.13;;;1.67;;
54853;SDS011;40747;49.480;8.658;2024-02-15T01:38:58;2.15;;;1.20;;
54853;SDS011;40747;49.480;8.658;2024-02-15T01:41:23;3.25;;;1.83;;
54853;SDS011;40747;49.480;8.658;2024-02-15T01:43:48;1.83;;;1.50;;
54853;SDS011;40747;49.480;8.658;2024-02-15T01:46:14;4.70;;;1.52;;
54853;SDS011;40747;49.480;8.658;2024-02-15T01:48:40;4.10;;;1.85;;
54853;SDS011;40747;49.480;8.658;2024-02-15T01:51:07;2.30;;;1.75;;
54853;SDS011;40747;49.480;8.658;2024-02-15T01:53:35;1.67;;;1.23;;
54853;SDS011;40747;49.480;8.658;2024-02-15T01:56:00;2.00;;;0.82;;
54853;SDS011;40747;49.480;8.658;2024-02-15T01:58:26;3.50;;;1.58;;
54853;SDS011;40747;49.480;8.658;2024-02-15T02:00:53;3.78;;;2.00;;
54853;SDS011;40747;49.480;8.658;2024-02-15T02:03:20;5.55;;;1.42;;
54853;SDS011;40747;49.480;8.658;2024-02-15T02:05:46;5.00;;;1.33;;
54853;SDS011;40747;49.480;8.658;2024-02-15T02:08:11;1.35;;;1.15;;
54853;SDS011;40747;49.480;8.658;2024-02-15T02:10:37;2.45;;;1.40;;
54853;SDS011;40747;49.480;8.658;2024-02-15T02:13:03;4.30;;;1.30;;
54853;SDS011;40747;49.480;8.658;2024-02-15T02:15:29;1.23;;;1.13;;
54853;SDS011;40747;49.480;8.658;2024-02-15T02:17:56;4.97;;;1.23;;
54853;SDS011;40747;49.480;8.658;2024-02-15T02:20:24;1.05;;;0.95;;
54853;SDS011;40747;49.480;8.658;2024-02-15T02:22:50;0.90;;;0.82;;
54853;SDS011;40747;49.480;8.658;2024-02-15T02:25:26;2.33;;;1.35;;
54853;SDS011;40747;49.480;8.658;2024-02-15T02:27:52;1.33;;;1.10;;
54853;SDS011;40747;49.480;8.658;2024-02-15T02:30:18;8.93;;;1.60;;
54853;SDS011;40747;49.480;8.658;2024-02-15T02:32:47;3.65;;;1.58;;
54853;SDS011;40747;49.480;8.658;2024-02-15T02:35:12;2.53;;;1.73;;
54853;SDS011;40747;49.480;8.658;2024-02-15T02:37:38;3.08;;;0.90;;
54853;SDS011;40747;49.480;8.658;2024-02-15T02:40:07;3.95;;;1.58;;
54853;SDS011;40747;49.480;8.658;2024-02-15T02:42:53;6.47;;;1.38;;
54853;SDS011;40747;49.480;8.658;2024-02-15T02:45:21;2.65;;;1.40;;
54853;SDS011;40747;49.480;8.658;2024-02-15T02:47:47;2.97;;;1.00;;
54853;SDS011;40747;49.480;8.658;2024-02-15T02:50:13;2.90;;;1.40;;
54853;SDS011;40747;49.480;8.658;2024-02-15T02:52:39;2.40;;;1.20;;
54853;SDS011;40747;49.480;8.658;2024-02-15T02:55:05;1.25;;;1.15;;
54853;SDS011;40747;49.480;8.658;2024-02-15T02:57:33;9.45;;;1.10;;
54853;SDS011;40747;49.480;8.658;2024-02-15T03:00:00;2.97;;;1.33;;
54853;SDS011;40747;49.480;8.658;2024-02-15T03:02:29;0.80;;;0.80;;
54853;SDS011;40747;49.480;8.658;2024-02-15T03:04:54;1.48;;;0.75;;
54853;SDS011;40747;49.480;8.658;2024-02-15T03:07:19;1.60;;;0.90;;
54853;SDS011;40747;49.480;8.658;2024-02-15T03:09:44;1.35;;;0.93;;
54853;SDS011;40747;49.480;8.658;2024-02-15T03:12:10;3.90;;;1.15;;
54853;SDS011;40747;49.480;8.658;2024-02-15T03:14:35;2.40;;;1.45;;
54853;SDS011;40747;49.480;8.658;2024-02-15T03:17:01;3.03;;;1.67;;
54853;SDS011;40747;49.480;8.658;2024-02-15T03:19:28;3.95;;;1.10;;
54853;SDS011;40747;49.480;8.658;2024-02-15T03:21:55;3.20;;;1.20;;
54853;SDS011;40747;49.480;8.658;2024-02-15T03:24:21;1.13;;;0.88;;
54853;SDS011;40747;49.480;8.658;2024-02-15T03:26:46;0.93;;;0.77;;
54853;SDS011;40747;49.480;8.658;2024-02-15T03:29:11;1.50;;;1.10;;
54853;SDS011;40747;49.480;8.658;2024-02-15T03:31:36;2.50;;;1.25;;
54853;SDS011;40747;49.480;8.658;2024-02-15T03:34:05;1.88;;;0.90;;
54853;SDS011;40747;49.480;8.658;2024-02-15T03:36:30;4.78;;;1.33;;
54853;SDS011;40747;49.480;8.658;2024-02-15T03:38:56;0.93;;;0.80;;
54853;SDS011;40747;49.480;8.658;2024-02-15T03:41:21;0.82;;;0.77;;
54853;SDS011;40747;49.480;8.658;2024-02-15T03:43:47;1.20;;;0.73;;
54853;SDS011;40747;49.480;8.658;2024-02-15T03:46:13;1.15;;;0.70;;
54853;SDS011;40747;49.480;8.658;2024-02-15T03:48:40;1.10;;;0.68;;
54853;SDS011;40747;49.480;8.658;2024-02-15T03:51:08;7.60;;;1.15;;
54853;SDS011;40747;49.480;8.658;2024-02-15T03:53:34;3.35;;;1.10;;
54853;SDS011;40747;49.480;8.658;2024-02-15T03:56:02;3.10;;;0.60;;
54853;SDS011;40747;49.480;8.658;2024-02-15T03:58:28;1.92;;;1.17;;
54853;SDS011;40747;49.480;8.658;2024-02-15T04:00:55;1.13;;;0.88;;
54853;SDS011;40747;49.480;8.658;2024-02-15T04:03:21;1.50;;;0.75;;
54853;SDS011;40747;49.480;8.658;2024-02-15T04:05:47;6.22;;;1.08;;
54853;SDS011;40747;49.480;8.658;2024-02-15T04:08:13;1.85;;;1.15;;
54853;SDS011;40747;49.480;8.658;2024-02-15T04:10:41;8.07;;;1.00;;
54853;SDS011;40747;49.480;8.658;2024-02-15T04:13:06;1.65;;;1.08;;
54853;SDS011;40747;49.480;8.658;2024-02-15T04:15:32;4.75;;;0.93;;
54853;SDS011;40747;49.480;8.658;2024-02-15T04:17:58;0.60;;;0.60;;
54853;SDS011;40747;49.480;8.658;2024-02-15T04:20:24;7.90;;;1.38;;
54853;SDS011;40747;49.480;8.658;2024-02-15T04:22:50;8.27;;;1.02;;
54853;SDS011;40747;49.480;8.658;2024-02-15T04:25:15;1.38;;;0.68;;
54853;SDS011;40747;49.480;8.658;2024-02-15T04:27:43;5.70;;;1.85;;
54853;SDS011;40747;49.480;8.658;2024-02-15T04:30:10;1.25;;;0.75;;
54853;SDS011;40747;49.480;8.658;2024-02-15T04:32:36;1.85;;;0.90;;
54853;SDS011;40747;49.480;8.658;2024-02-15T04:35:01;9.88;;;1.60;;
54853;SDS011;40747;49.480;8.658;2024-02-15T04:37:27;1.17;;;1.08;;
54853;SDS011;40747;49.480;8.658;2024-02-15T04:39:54;3.30;;;1.52;;
54853;SDS011;40747;49.480;8.658;2024-02-15T04:42:19;1.30;;;1.05;;
54853;SDS011;40747;49.480;8.658;2024-02-15T04:44:45;2.83;;;1.20;;
54853;SDS011;40747;49.480;8.658;2024-02-15T04:47:10;2.65;;;1.38;;
54853;SDS011;40747;49.480;8.658;2024-02-15T04:49:35;1.92;;;1.38;;
54853;SDS011;40747;49.480;8.658;2024-02-15T04:52:03;1.20;;;1.10;;
54853;SDS011;40747;49.480;8.658;2024-02-15T04:54:29;4.65;;;1.92;;
54853;SDS011;40747;49.480;8.658;2024-02-15T04:56:54;2.53;;;1.30;;
54853;SDS011;40747;49.480;8.658;2024-02-15T04:59:21;2.95;;;1.83;;
54853;SDS011;40747;49.480;8.658;2024-02-15T05:01:50;3.08;;;1.60;;
54853;SDS011;40747;49.480;8.658;2024-02-15T05:04:16;2.28;;;1.27;;
54853;SDS011;40747;49.480;8.658;2024-02-15T05:06:42;3.28;;;1.05;;
54853;SDS011;40747;49.480;8.658;2024-02-15T05:09:10;3.97;;;1.48;;
54853;SDS011;40747;49.480;8.658;2024-02-15T05:11:38;4.30;;;1.40;;
54853;SDS011;40747;49.480;8.658;2024-02-15T05:14:11;6.13;;;1.33;;
54853;SDS011;40747;49.480;8.658;2024-02-15T05:16:36;3.35;;;1.13;;
54853;SDS011;40747;49.480;8.658;2024-02-15T05:19:07;2.22;;;1.30;;
54853;SDS011;40747;49.480;8.658;2024-02-15T05:21:33;2.58;;;1.58;;
54853;SDS011;40747;49.480;8.658;2024-02-15T05:23:59;3.83;;;1.40;;
54853;SDS011;40747;49.480;8.658;2024-02-15T05:26:24;1.95;;;1.10;;
54853;SDS011;40747;49.480;8.658;2024-02-15T05:28:49;1.77;;;1.48;;
54853;SDS011;40747;49.480;8.658;2024-02-15T05:31:19;1.75;;;1.10;;
54853;SDS011;40747;49.480;8.658;2024-02-15T05:33:48;1.35;;;1.05;;
54853;SDS011;40747;49.480;8.658;2024-02-15T05:36:18;4.70;;;1.20;;
54853;SDS011;40747;49.480;8.658;2024-02-15T05:38:45;2.70;;;0.88;;
54853;SDS011;40747;49.480;8.658;2024-02-15T05:41:11;1.95;;;1.25;;
54853;SDS011;40747;49.480;8.658;2024-02-15T05:43:36;3.03;;;0.90;;
54853;SDS011;40747;49.480;8.658;2024-02-15T05:46:03;1.25;;;0.90;;
54853;SDS011;40747;49.480;8.658;2024-02-15T05:48:29;6.00;;;1.00;;
54853;SDS011;40747;49.480;8.658;2024-02-15T05:50:55;2.22;;;0.90;;
54853;SDS011;40747;49.480;8.658;2024-02-15T05:53:22;1.63;;;0.95;;
54853;SDS011;40747;49.480;8.658;2024-02-15T05:55:47;1.63;;;0.90;;
54853;SDS011;40747;49.480;8.658;2024-02-15T05:58:14;1.73;;;0.75;;
54853;SDS011;40747;49.480;8.658;2024-02-15T06:00:40;2.45;;;1.10;;
54853;SDS011;40747;49.480;8.658;2024-02-15T06:03:06;3.25;;;1.17;;
54853;SDS011;40747;49.480;8.658;2024-02-15T06:05:31;6.88;;;1.83;;
54853;SDS011;40747;49.480;8.658;2024-02-15T06:07:59;3.10;;;0.80;;
54853;SDS011;40747;49.480;8.658;2024-02-15T06:10:25;2.67;;;1.08;;
54853;SDS011;40747;49.480;8.658;2024-02-15T06:12:50;2.83;;;1.50;;
54853;SDS011;40747;49.480;8.658;2024-02-15T06:15:16;1.13;;;0.93;;
54853;SDS011;40747;49.480;8.658;2024-02-15T06:17:42;2.35;;;0.80;;
54853;SDS011;40747;49.480;8.658;2024-02-15T06:20:14;5.20;;;1.02;;
54853;SDS011;40747;49.480;8.658;2024-02-15T06:22:42;1.33;;;0.80;;
54853;SDS011;40747;49.480;8.658;2024-02-15T06:25:08;1.80;;;0.98;;
54853;SDS011;40747;49.480;8.658;2024-02-15T06:27:35;7.22;;;3.85;;
54853;SDS011;40747;49.480;8.658;2024-02-15T06:30:05;11.35;;;5.53;;
54853;SDS011;40747;49.480;8.658;2024-02-15T06:32:50;28.10;;;12.95;;
54853;SDS011;40747;49.480;8.658;2024-02-15T06:35:34;5.80;;;3.03;;
54853;SDS011;40747;49.480;8.658;2024-02-15T06:38:18;11.45;;;3.92;;
54853;SDS011;40747;49.480;8.658;2024-02-15T06:41:02;12.77;;;5.80;;
54853;SDS011;40747;49.480;8.658;2024-02-15T06:43:28;10.52;;;2.25;;
54853;SDS011;40747;49.480;8.658;2024-02-15T06:45:53;4.70;;;2.85;;
54853;SDS011;40747;49.480;8.658;2024-02-15T06:48:20;6.05;;;1.70;;
54853;SDS011;40747;49.480;8.658;2024-02-15T06:50:47;3.08;;;1.33;;
54853;SDS011;40747;49.480;8.658;2024-02-15T06:53:13;4.53;;;1.88;;
54853;SDS011;40747;49.480;8.658;2024-02-15T06:55:39;2.38;;;1.42;;
54853;SDS011;40747;49.480;8.658;2024-02-15T06:58:05;4.80;;;0.98;;
54853;SDS011;40747;49.480;8.658;2024-02-15T07:00:30;2.13;;;1.20;;
54853;SDS011;40747;49.480;8.658;2024-02-15T07:02:56;2.13;;;1.38;;
54853;SDS011;40747;49.480;8.658;2024-02-15T07:05:21;2.50;;;1.35;;
54853;SDS011;40747;49.480;8.658;2024-02-15T07:07:48;4.40;;;1.10;;
54853;SDS011;40747;49.480;8.658;2024-02-15T07:10:13;1.35;;;0.98;;
54853;SDS011;40747;49.480;8.658;2024-02-15T07:12:41;1.15;;;1.05;;
54853;SDS011;40747;49.480;8.658;2024-02-15T07:15:08;2.60;;;1.20;;
54853;SDS011;40747;49.480;8.658;2024-02-15T07:17:34;2.15;;;1.13;;
54853;SDS011;40747;49.480;8.658;2024-02-15T07:20:02;1.75;;;1.10;;
54853;SDS011;40747;49.480;8.658;2024-02-15T07:22:29;2.55;;;1.27;;
54853;SDS011;40747;49.480;8.658;2024-02-15T07:24:56;2.25;;;1.40;;
54853;SDS011;40747;49.480;8.658;2024-02-15T07:27:21;2.63;;;1.10;;
54853;SDS011;40747;49.480;8.658;2024-02-15T07:29:50;2.88;;;0.90;;
54853;SDS011;40747;49.480;8.658;2024-02-15T07:32:15;4.68;;;1.27;;
54853;SDS011;40747;49.480;8.658;2024-02-15T07:34:42;5.05;;;1.40;;
54853;SDS011;40747;49.480;8.658;2024-02-15T07:37:08;1.38;;;1.00;;
54853;SDS011;40747;49.480;8.658;2024-02-15T07:39:34;3.38;;;0.98;;
54853;SDS011;40747;49.480;8.658;2024-02-15T07:42:01;1.95;;;1.73;;
54853;SDS011;40747;49.480;8.658;2024-02-15T07:44:29;3.42;;;0.90;;
54853;SDS011;40747;49.480;8.658;2024-02-15T07:46:57;2.40;;;1.15;;
54853;SDS011;40747;49.480;8.658;2024-02-15T07:49:25;2.60;;;0.90;;
54853;SDS011;40747;49.480;8.658;2024-02-15T07:51:51;0.88;;;0.77;;
54853;SDS011;40747;49.480;8.658;2024-02-15T07:54:18;1.63;;;0.85;;
54853;SDS011;40747;49.480;8.658;2024-02-15T07:56:46;3.63;;;0.85;;
54853;SDS011;40747;49.480;8.658;2024-02-15T07:59:12;1.13;;;0.80;;
54853;SDS011;40747;49.480;8.658;2024-02-15T08:01:39;0.80;;;0.70;;
54853;SDS011;40747;49.480;8.658;2024-02-15T08:04:05;0.80;;;0.80;;
54853;SDS011;40747;49.480;8.658;2024-02-15T08:06:33;2.70;;;0.80;;
54853;SDS011;40747;49.480;8.658;2024-02-15T08:08:58;1.48;;;0.90;;
54853;SDS011;40747;49.480;8.658;2024-02-15T08:11:24;3.60;;;1.10;;
54853;SDS011;40747;49.480;8.658;2024-02-15T08:13:51;5.47;;;0.90;;
54853;SDS011;40747;49.480;8.658;2024-02-15T08:16:20;0.55;;;0.55;;
54853;SDS011;40747;49.480;8.658;2024-02-15T08:18:51;1.08;;;0.60;;
54853;SDS011;40747;49.480;8.658;2024-02-15T08:21:29;2.28;;;0.95;;
54853;SDS011;40747;49.480;8.658;2024-02-15T08:23:57;3.33;;;1.00;;
54853;SDS011;40747;49.480;8.658;2024-02-15T08:26:32;2.35;;;1.33;;
54853;SDS011;40747;49.480;8.658;2024-02-15T08:28:58;1.70;;;0.75;;
54853;SDS011;40747;49.480;8.658;2024-02-15T08:31:23;2.95;;;1.05;;
54853;SDS011;40747;49.480;8.658;2024-02-15T08:33:48;4.65;;;1.85;;
54853;SDS011;40747;49.480;8.658;2024-02-15T08:36:14;6.72;;;2.33;;
54853;SDS011;40747;49.480;8.658;2024-02-15T08:38:39;4.68;;;2.00;;
54853;SDS011;40747;49.480;8.658;2024-02-15T08:41:06;6.47;;;3.17;;
54853;SDS011;40747;49.480;8.658;2024-02-15T08:43:33;11.25;;;2.70;;
54853;SDS011;40747;49.480;8.658;2024-02-15T08:45:58;7.00;;;3.05;;
54853;SDS011;40747;49.480;8.658;2024-02-15T08:48:24;7.68;;;3.53;;
54853;SDS011;40747;49.480;8.658;2024-02-15T08:50:51;13.07;;;3.95;;
54853;SDS011;40747;49.480;8.658;2024-02-15T08:53:16;7.35;;;3.65;;
54853;SDS011;40747;49.480;8.658;2024-02-15T08:55:44;8.15;;;2.78;;
54853;SDS011;40747;49.480;8.658;2024-02-15T08:58:10;15.55;;;5.43;;
54853;SDS011;40747;49.480;8.658;2024-02-15T09:00:35;10.52;;;4.07;;
54853;SDS011;40747;49.480;8.658;2024-02-15T09:03:02;10.25;;;3.17;;
54853;SDS011;40747;49.480;8.658;2024-02-15T09:05:27;3.78;;;2.00;;
54853;SDS011;40747;49.480;8.658;2024-02-15T09:07:53;4.93;;;1.30;;
54853;SDS011;40747;49.480;8.658;2024-02-15T09:10:18;3.22;;;1.58;;
54853;SDS011;40747;49.480;8.658;2024-02-15T09:12:44;4.15;;;2.65;;
54853;SDS011;40747;49.480;8.658;2024-02-15T09:15:13;2.58;;;1.33;;
54853;SDS011;40747;49.480;8.658;2024-02-15T09:17:39;5.70;;;1.50;;
54853;SDS011;40747;49.480;8.658;2024-02-15T09:20:08;4.55;;;0.98;;
54853;SDS011;40747;49.480;8.658;2024-02-15T09:22:39;1.92;;;1.40;;
54853;SDS011;40747;49.480;8.658;2024-02-15T09:25:09;4.90;;;1.35;;
54853;SDS011;40747;49.480;8.658;2024-02-15T09:27:35;1.83;;;0.82;;
54853;SDS011;40747;49.480;8.658;2024-02-15T09:30:01;3.35;;;1.00;;
54853;SDS011;40747;49.480;8.658;2024-02-15T09:32:27;1.58;;;0.88;;
54853;SDS011;40747;49.480;8.658;2024-02-15T09:34:52;5.78;;;1.52;;
54853;SDS011;40747;49.480;8.658;2024-02-15T09:37:17;5.90;;;0.88;;
54853;SDS011;40747;49.480;8.658;2024-02-15T09:39:43;1.23;;;0.70;;
54853;SDS011;40747;49.480;8.658;2024-02-15T09:42:08;4.15;;;1.08;;
54853;SDS011;40747;49.480;8.658;2024-02-15T09:44:34;2.20;;;0.77;;
54853;SDS011;40747;49.480;8.658;2024-02-15T09:47:03;2.40;;;0.93;;
54853;SDS011;40747;49.480;8.658;2024-02-15T09:49:36;2.42;;;0.90;;
54853;SDS011;40747;49.480;8.658;2024-02-15T09:52:04;1.17;;;0.70;;
54853;SDS011;40747;49.480;8.658;2024-02-15T09:54:31;2.35;;;0.68;;
54853;SDS011;40747;49.480;8.658;2024-02-15T09:56:59;1.15;;;0.82;;
54853;SDS011;40747;49.480;8.658;2024-02-15T09:59:26;2.72;;;0.60;;
54853;SDS011;40747;49.480;8.658;2024-02-15T10:01:51;0.93;;;0.60;;
54853;SDS011;40747;49.480;8.658;2024-02-15T10:04:20;0.93;;;0.70;;
54853;SDS011;40747;49.480;8.658;2024-02-15T10:06:45;2.42;;;1.17;;
54853;SDS011;40747;49.480;8.658;2024-02-15T10:12:08;1.38;;;0.55;;
54853;SDS011;40747;49.480;8.658;2024-02-15T10:14:34;1.67;;;0.70;;
54853;SDS011;40747;49.480;8.658;2024-02-15T10:17:07;0.55;;;0.35;;
54853;SDS011;40747;49.480;8.658;2024-02-15T10:19:36;3.88;;;0.95;;
54853;SDS011;40747;49.480;8.658;2024-02-15T10:22:08;0.65;;;0.55;;
54853;SDS011;40747;49.480;8.658;2024-02-15T10:24:35;1.25;;;0.47;;
54853;SDS011;40747;49.480;8.658;2024-02-15T10:27:02;3.08;;;1.00;;
54853;SDS011;40747;49.480;8.658;2024-02-15T10:29:29;0.40;;;0.40;;
54853;SDS011;40747;49.480;8.658;2024-02-15T10:31:59;1.85;;;0.60;;
54853;SDS011;40747;49.480;8.658;2024-02-15T10:34:25;1.73;;;0.63;;
54853;SDS011;40747;49.480;8.658;2024-02-15T10:36:54;2.92;;;0.40;;
54853;SDS011;40747;49.480;8.658;2024-02-15T10:39:22;0.90;;;0.50;;
54853;SDS011;40747;49.480;8.658;2024-02-15T10:41:52;3.42;;;0.57;;
54853;SDS011;40747;49.480;8.658;2024-02-15T10:44:19;1.00;;;0.40;;
54853;SDS011;40747;49.480;8.658;2024-02-15T10:46:49;3.92;;;0.77;;
54853;SDS011;40747;49.480;8.658;2024-02-15T10:49:19;0.43;;;0.38;;
54853;SDS011;40747;49.480;8.658;2024-02-15T10:51:46;1.00;;;0.35;;
54853;SDS011;40747;49.480;8.658;2024-02-15T10:54:15;5.03;;;0.63;;
54853;SDS011;40747;49.480;8.658;2024-02-15T10:56:49;2.75;;;0.47;;
54853;SDS011;40747;49.480;8.658;2024-02-15T10:59:21;1.77;;;0.70;;
54853;SDS011;40747;49.480;8.658;2024-02-15T11:01:55;2.38;;;0.70;;
54853;SDS011;40747;49.480;8.658;2024-02-15T11:04:24;2.50;;;0.68;;
54853;SDS011;40747;49.480;8.658;2024-02-15T11:06:57;2.97;;;0.30;;
54853;SDS011;40747;49.480;8.658;2024-02-15T11:09:23;0.98;;;0.47;;
54853;SDS011;40747;49.480;8.658;2024-02-15T11:11:52;0.77;;;0.60;;
54853;SDS011;40747;49.480;8.658;2024-02-15T11:14:30;0.98;;;0.63;;
54853;SDS011;40747;49.480;8.658;2024-02-15T11:16:57;2.20;;;0.73;;
54853;SDS011;40747;49.480;8.658;2024-02-15T11:22:00;2.72;;;0.82;;
54853;SDS011;40747;49.480;8.658;2024-02-15T11:24:31;0.93;;;0.80;;
54853;SDS011;40747;49.480;8.658;2024-02-15T11:27:00;1.60;;;0.40;;
54853;SDS011;40747;49.480;8.658;2024-02-15T11:35:02;7.82;;;0.88;;
54853;SDS011;40747;49.480;8.658;2024-02-15T11:40:13;1.15;;;0.50;;
54853;SDS011;40747;49.480;8.658;2024-02-15T11:42:42;1.55;;;0.60;;
54853;SDS011;40747;49.480;8.658;2024-02-15T11:45:08;1.02;;;0.65;;
54853;SDS011;40747;49.480;8.658;2024-02-15T11:47:35;1.25;;;0.40;;
54853;SDS011;40747;49.480;8.658;2024-02-15T11:50:02;1.17;;;0.45;;
54853;SDS011;40747;49.480;8.658;2024-02-15T11:52:28;2.85;;;1.00;;
54853;SDS011;40747;49.480;8.658;2024-02-15T11:54:53;0.85;;;0.47;;
54853;SDS011;40747;49.480;8.658;2024-02-15T11:57:28;1.75;;;0.35;;
54853;SDS011;40747;49.480;8.658;2024-02-15T12:00:02;0.35;;;0.35;;
54853;SDS011;40747;49.480;8.658;2024-02-15T12:02:46;1.27;;;0.50;;
54853;SDS011;40747;49.480;8.658;2024-02-15T12:05:30;0.82;;;0.60;;
54853;SDS011;40747;49.480;8.658;2024-02-15T12:08:14;2.28;;;0.60;;
54853;SDS011;40747;49.480;8.658;2024-02-15T12:10:58;1.55;;;0.30;;
54853;SDS011;40747;49.480;8.658;2024-02-15T12:13:43;3.50;;;0.57;;
54853;SDS011;40747;49.480;8.658;2024-02-15T12:16:27;1.83;;;0.40;;
54853;SDS011;40747;49.480;8.658;2024-02-15T12:19:11;0.38;;;0.30;;
54853;SDS011;40747;49.480;8.658;2024-02-15T12:21:36;1.42;;;0.50;;
54853;SDS011;40747;49.480;8.658;2024-02-15T12:24:06;1.98;;;0.40;;
54853;SDS011;40747;49.480;8.658;2024-02-15T12:26:32;1.00;;;0.32;;
54853;SDS011;40747;49.480;8.658;2024-02-15T12:28:59;1.65;;;0.50;;
54853;SDS011;40747;49.480;8.658;2024-02-15T12:31:26;1.77;;;0.65;;
54853;SDS011;40747;49.480;8.658;2024-02-15T12:34:02;7.78;;;0.50;;
54853;SDS011;40747;49.480;8.658;2024-02-15T12:36:31;4.32;;;0.57;;
54853;SDS011;40747;49.480;8.658;2024-02-15T12:39:02;0.85;;;0.43;;
54853;SDS011;40747;49.480;8.658;2024-02-15T12:41:35;3.65;;;0.47;;
54853;SDS011;40747;49.480;8.658;2024-02-15T12:44:00;0.85;;;0.40;;
54853;SDS011;40747;49.480;8.658;2024-02-15T12:46:27;3.50;;;0.77;;
54853;SDS011;40747;49.480;8.658;2024-02-15T12:49:05;2.47;;;0.52;;
54853;SDS011;40747;49.480;8.658;2024-02-15T12:51:31;0.38;;;0.25;;
54853;SDS011;40747;49.480;8.658;2024-02-15T12:54:07;1.70;;;0.60;;
54853;SDS011;40747;49.480;8.658;2024-02-15T12:56:33;2.00;;;0.50;;
54853;SDS011;40747;49.480;8.658;2024-02-15T12:58:59;0.30;;;0.30;;
54853;SDS011;40747;49.480;8.658;2024-02-15T13:01:25;2.63;;;0.75;;
54853;SDS011;40747;49.480;8.658;2024-02-15T13:03:53;1.73;;;0.40;;
54853;SDS011;40747;49.480;8.658;2024-02-15T13:06:19;1.08;;;0.50;;
54853;SDS011;40747;49.480;8.658;2024-02-15T13:08:48;1.80;;;0.60;;
54853;SDS011;40747;49.480;8.658;2024-02-15T13:11:14;2.85;;;0.60;;
54853;SDS011;40747;49.480;8.658;2024-02-15T13:13:40;0.98;;;0.50;;
54853;SDS011;40747;49.480;8.658;2024-02-15T13:16:07;1.58;;;0.43;;
54853;SDS011;40747;49.480;8.658;2024-02-15T13:18:32;2.38;;;0.55;;
54853;SDS011;40747;49.480;8.658;2024-02-15T13:20:58;0.80;;;0.43;;
54853;SDS011;40747;49.480;8.658;2024-02-15T13:23:23;2.33;;;0.52;;
54853;SDS011;40747;49.480;8.658;2024-02-15T13:25:50;1.52;;;0.77;;
54853;SDS011;40747;49.480;8.658;2024-02-15T13:28:17;0.75;;;0.50;;
54853;SDS011;40747;49.480;8.658;2024-02-15T13:30:43;4.25;;;0.70;;
54853;SDS011;40747;49.480;8.658;2024-02-15T13:33:10;2.28;;;0.60;;
54853;SDS011;40747;49.480;8.658;2024-02-15T13:35:36;1.00;;;0.50;;
54853;SDS011;40747;49.480;8.658;2024-02-15T13:38:01;0.60;;;0.60;;
54853;SDS011;40747;49.480;8.658;2024-02-15T13:40:27;0.80;;;0.50;;
54853;SDS011;40747;49.480;8.658;2024-02-15T13:42:55;3.05;;;0.50;;
54853;SDS011;40747;49.480;8.658;2024-02-15T13:45:24;1.65;;;0.50;;
54853;SDS011;40747;49.480;8.658;2024-02-15T13:47:57;1.58;;;0.40;;
54853;SDS011;40747;49.480;8.658;2024-02-15T13:50:23;4.13;;;0.40;;
54853;SDS011;40747;49.480;8.658;2024-02-15T13:52:49;2.78;;;0.57;;
54853;SDS011;40747;49.480;8.658;2024-02-15T13:55:15;1.00;;;0.57;;
54853;SDS011;40747;49.480;8.658;2024-02-15T13:57:43;1.58;;;0.70;;
54853;SDS011;40747;49.480;8.658;2024-02-15T14:00:10;2.28;;;0.77;;
54853;SDS011;40747;49.480;8.658;2024-02-15T14:02:46;1.20;;;0.50;;
54853;SDS011;40747;49.480;8.658;2024-02-15T14:05:12;0.73;;;0.20;;
54853;SDS011;40747;49.480;8.658;2024-02-15T14:07:38;2.20;;;0.47;;
54853;SDS011;40747;49.480;8.658;2024-02-15T14:10:04;2.28;;;0.40;;
54853;SDS011;40747;49.480;8.658;2024-02-15T14:12:31;4.70;;;0.85;;
54853;SDS011;40747;49.480;8.658;2024-02-15T14:14:56;2.30;;;0.50;;
54853;SDS011;40747;49.480;8.658;2024-02-15T14:17:21;1.30;;;0.40;;
54853;SDS011;40747;49.480;8.658;2024-02-15T14:19:47;5.53;;;0.55;;
54853;SDS011;40747;49.480;8.658;2024-02-15T14:22:13;0.73;;;0.30;;
54853;SDS011;40747;49.480;8.658;2024-02-15T14:24:41;3.03;;;0.70;;
54853;SDS011;40747;49.480;8.658;2024-02-15T14:27:08;2.25;;;0.60;;
54853;SDS011;40747;49.480;8.658;2024-02-15T14:29:34;2.10;;;0.90;;
54853;SDS011;40747;49.480;8.658;2024-02-15T14:32:02;1.90;;;0.43;;
54853;SDS011;40747;49.480;8.658;2024-02-15T14:34:46;1.67;;;0.80;;
54853;SDS011;40747;49.480;8.658;2024-02-15T14:37:13;2.83;;;0.40;;
54853;SDS011;40747;49.480;8.658;2024-02-15T14:39:39;0.82;;;0.45;;
54853;SDS011;40747;49.480;8.658;2024-02-15T14:42:04;0.80;;;0.45;;
54853;SDS011;40747;49.480;8.658;2024-02-15T14:44:31;5.47;;;0.60;;
54853;SDS011;40747;49.480;8.658;2024-02-15T14:46:56;2.03;;;0.40;;
54853;SDS011;40747;49.480;8.658;2024-02-15T14:49:22;0.20;;;0.20;;
54853;SDS011;40747;49.480;8.658;2024-02-15T14:51:47;0.40;;;0.30;;
54853;SDS011;40747;49.480;8.658;2024-02-15T14:54:16;3.92;;;0.60;;
54853;SDS011;40747;49.480;8.658;2024-02-15T14:56:43;1.88;;;0.38;;
54853;SDS011;40747;49.480;8.658;2024-02-15T14:59:09;1.77;;;0.40;;
54853;SDS011;40747;49.480;8.658;2024-02-15T15:01:36;1.45;;;0.50;;
54853;SDS011;40747;49.480;8.658;2024-02-15T15:04:02;3.13;;;0.70;;